KIKV

Ankeny Regional Airport

Ankeny, Iowa, USA
METAR KIKV 181615Z AUTO 19008G15KT 5SM BR CLR 02/00 A2994 RMK AO2
Observed Flight Rules
Dec-18 @ 16:15 UTC (23 minutes ago) Marginal Visual Flight Rules
Wind Visibility Clouds Conditions
190° at 8 knots
 Gusting to 15 knots
5 miles
  • Clear skies
  • Mist
Temperatures Readings
Current 2°C / 36°F
Dewpoint 0°C / 32°F
Humidity 87%
Altimeter 29.94" Hg
Pressure 1014 hPa
Elevation 275
METAR KIKV 181615Z AUTO 19008G15KT 5SM BR CLR 02/00 A2994 RMK AO2
Observed Flight Rules
Dec-18 @ 16:15 UTC
(23 minutes ago)
MVFR
Wind Visibility
190° at 8 knots
 Gusting to 15 knots
5 miles
Clouds
  • Clear skies
Conditions
  • Mist
Temperature Dewpoint
2°C / 36°F 0°C / 32°F
Humidity Altimeter Pressure
87% 29.94" Hg 1014 hPa